Time,TemperatureF,DewpointF,PressureIn,WindDirection,WindDirectionDegrees,WindSpeedMPH,WindSpeedGustMPH,Humidity,HourlyPrecipIn,Conditions,Clouds,dailyrainin,SoftwareType,DateUTC
2013-03-07 00:05:00,25.8,20.6,30.29,West,267,6.1,10.7,78,0.00,,,0.00,WSDL version 420,2013-03-07 05:05:00,
2013-03-07 00:10:00,25.7,20.5,30.29,WSW,240,6.2,11.0,78,0.00,,,0.00,WSDL version 420,2013-03-07 05:10:00,
2013-03-07 00:15:00,25.5,20.3,30.29,NE,56,4.3,11.0,79,0.00,,,0.00,WSDL version 420,2013-03-07 05:15:00,
2013-03-07 00:20:00,25.5,20.6,30.26,WSW,245,5.9,9.8,79,0.00,,,0.00,WSDL version 420,2013-03-07 05:20:00,
2013-03-07 00:25:00,25.5,20.5,30.26,West,278,5.0,10.5,79,0.00,,,0.00,WSDL version 420,2013-03-07 05:25:00,
2013-03-07 00:30:00,25.3,20.4,30.26,West,267,5.8,10.5,79,0.00,,,0.00,WSDL version 420,2013-03-07 05:30:00,
2013-03-07 00:35:00,25.3,20.4,30.26,WSW,248,7.6,12.1,79,0.00,,,0.00,WSDL version 420,2013-03-07 05:35:00,
2013-03-07 00:40:00,25.2,20.2,30.26,WSW,239,6.4,12.1,79,0.00,,,0.00,WSDL version 420,2013-03-07 05:40:00,
2013-03-07 00:45:00,25.2,20.2,30.26,WSW,245,6.4,11.0,79,0.00,,,0.00,WSDL version 420,2013-03-07 05:45:00,
2013-03-07 00:50:00,25.2,20.2,30.26,SW,235,7.6,13.0,79,0.00,,,0.00,WSDL version 420,2013-03-07 05:50:00,
2013-03-07 00:55:00,25.2,20.5,30.26,WSW,248,8.0,13.0,80,0.00,,,0.00,WSDL version 420,2013-03-07 05:55:00,
2013-03-07 01:00:00,25.0,20.3,30.26,WSW,240,5.6,12.1,80,0.00,,,0.00,WSDL version 420,2013-03-07 06:00:00,
2013-03-07 01:05:00,24.9,20.2,30.26,SSW,203,3.2,12.1,80,0.00,,,0.00,WSDL version 420,2013-03-07 06:05:00,
2013-03-07 01:10:00,24.8,20.1,30.26,SSW,208,5.5,10.5,80,0.00,,,0.00,WSDL version 420,2013-03-07 06:10:00,
2013-03-07 01:15:00,24.8,20.1,30.26,East,96,2.6,8.1,80,0.00,,,0.00,WSDL version 420,2013-03-07 06:15:00,
2013-03-07 01:20:00,24.8,20.1,30.26,SW,228,8.9,12.8,80,0.00,,,0.00,WSDL version 420,2013-03-07 06:20:00,
2013-03-07 01:25:00,24.7,20.0,30.26,WSW,239,6.3,12.8,80,0.00,,,0.00,WSDL version 420,2013-03-07 06:25:00,
2013-03-07 01:30:00,24.6,20.2,30.26,West,276,2.1,10.5,81,0.00,,,0.00,WSDL version 420,2013-03-07 06:30:00,
2013-03-07 01:35:00,24.6,20.1,30.26,West,263,5.4,10.5,80,0.00,,,0.00,WSDL version 420,2013-03-07 06:35:00,
2013-03-07 01:40:00,24.6,19.9,30.26,WSW,254,4.7,8.9,80,0.00,,,0.00,WSDL version 420,2013-03-07 06:40:00,
2013-03-07 01:45:00,24.7,20.0,30.26,West,260,7.1,9.8,80,0.00,,,0.00,WSDL version 420,2013-03-07 06:45:00,
2013-03-07 01:50:00,24.7,20.0,30.26,West,281,4.9,9.8,80,0.00,,,0.00,WSDL version 420,2013-03-07 06:50:00,
2013-03-07 01:55:00,24.6,19.9,30.26,WSW,253,5.3,9.8,80,0.00,,,0.00,WSDL version 420,2013-03-07 06:55:00,
2013-03-07 02:00:00,24.4,19.8,30.26,West,270,5.6,9.8,80,0.00,,,0.00,WSDL version 420,2013-03-07 07:00:00,
2013-03-07 02:05:00,24.4,19.8,30.26,WSW,258,7.0,10.5,80,0.00,,,0.00,WSDL version 420,2013-03-07 07:05:00,
2013-03-07 02:10:00,24.4,19.8,30.26,WNW,283,3.8,10.5,80,0.00,,,0.00,WSDL version 420,2013-03-07 07:10:00,
2013-03-07 02:15:00,24.4,19.7,30.26,WNW,287,3.2,7.4,80,0.00,,,0.00,WSDL version 420,2013-03-07 07:15:00,
2013-03-07 02:20:00,24.4,19.8,30.26,NNE,31,2.7,10.7,80,0.00,,,0.00,WSDL version 420,2013-03-07 07:20:00,
2013-03-07 02:25:00,24.4,19.8,30.26,WSW,256,2.2,10.7,80,0.00,,,0.00,WSDL version 420,2013-03-07 07:25:00,
2013-03-07 02:30:00,24.4,19.7,30.26,SSW,193,3.8,7.8,80,0.00,,,0.00,WSDL version 420,2013-03-07 07:30:00,
2013-03-07 02:35:00,24.4,19.7,30.26,WNW,293,3.6,7.2,80,0.00,,,0.00,WSDL version 420,2013-03-07 07:35:00,
2013-03-07 02:40:00,24.3,19.6,30.26,WNW,288,3.6,7.2,80,0.00,,,0.00,WSDL version 420,2013-03-07 07:40:00,
2013-03-07 02:45:00,24.4,19.7,30.26,West,273,3.9,9.8,80,0.00,,,0.00,WSDL version 420,2013-03-07 07:45:00,
2013-03-07 02:50:00,24.4,19.8,30.26,WNW,287,3.2,9.8,80,0.00,,,0.00,WSDL version 420,2013-03-07 07:50:00,
2013-03-07 02:55:00,24.4,19.8,30.26,West,276,4.4,7.8,80,0.00,,,0.00,WSDL version 420,2013-03-07 07:55:00,
2013-03-07 03:00:00,24.4,19.8,30.26,WNW,301,2.7,13.2,80,0.00,,,0.00,WSDL version 420,2013-03-07 08:00:00,
2013-03-07 03:05:00,24.4,19.8,30.26,SW,235,5.7,13.2,80,0.00,,,0.00,WSDL version 420,2013-03-07 08:05:00,
2013-03-07 03:10:00,24.5,19.9,30.26,West,273,4.9,10.1,80,0.00,,,0.00,WSDL version 420,2013-03-07 08:10:00,
2013-03-07 03:15:00,24.4,19.8,30.26,WNW,288,4.2,9.8,80,0.00,,,0.00,WSDL version 420,2013-03-07 08:15:00,
2013-03-07 03:20:00,24.4,20.0,30.26,West,270,2.8,8.5,81,0.00,,,0.00,WSDL version 420,2013-03-07 08:20:00,
2013-03-07 03:27:00,24.4,20.0,30.26,West,264,3.7,7.6,81,0.00,,,0.00,WSDL version 420,2013-03-07 08:27:00,
2013-03-07 03:32:00,24.4,19.9,30.26,NNW,333,1.9,7.4,80,0.00,,,0.00,WSDL version 420,2013-03-07 08:32:00,
2013-03-07 03:37:00,24.4,19.9,30.26,SW,230,2.9,7.2,81,0.00,,,0.00,WSDL version 420,2013-03-07 08:37:00,
2013-03-07 03:42:00,24.5,20.1,30.26,NW,318,2.8,7.8,81,0.00,,,0.00,WSDL version 420,2013-03-07 08:42:00,
2013-03-07 03:47:00,24.6,20.2,30.26,WSW,245,3.9,7.8,81,0.00,,,0.00,WSDL version 420,2013-03-07 08:47:00,
2013-03-07 03:52:00,24.6,20.2,30.26,WNW,302,5.0,10.5,81,0.00,,,0.00,WSDL version 420,2013-03-07 08:52:00,
2013-03-07 03:57:00,24.5,20.1,30.26,WNW,285,3.9,10.5,81,0.00,,,0.00,WSDL version 420,2013-03-07 08:57:00,
2013-03-07 04:02:00,24.5,20.1,30.26,West,270,3.1,8.1,81,0.00,,,0.00,WSDL version 420,2013-03-07 09:02:00,
2013-03-07 04:07:00,24.6,20.2,30.29,SW,233,4.2,8.1,81,0.00,,,0.00,WSDL version 420,2013-03-07 09:07:00,
2013-03-07 04:12:00,24.6,20.2,30.29,WSW,248,3.4,7.6,81,0.00,,,0.00,WSDL version 420,2013-03-07 09:12:00,
2013-03-07 04:17:00,24.5,20.1,30.29,NW,308,3.3,7.6,81,0.00,,,0.00,WSDL version 420,2013-03-07 09:17:00,
2013-03-07 04:22:00,24.5,20.1,30.26,WSW,240,3.8,9.8,81,0.00,,,0.00,WSDL version 420,2013-03-07 09:22:00,
2013-03-07 04:27:00,24.6,20.2,30.26,West,259,5.9,9.8,81,0.00,,,0.00,WSDL version 420,2013-03-07 09:27:00,
2013-03-07 04:32:00,24.6,20.2,30.26,West,275,5.8,8.7,81,0.00,,,0.00,WSDL version 420,2013-03-07 09:32:00,
2013-03-07 04:39:00,24.6,20.2,30.29,West,265,4.2,9.6,81,0.00,,,0.00,WSDL version 420,2013-03-07 09:39:00,
2013-03-07 04:44:00,24.6,20.2,30.29,West,270,4.1,9.6,81,0.00,,,0.00,WSDL version 420,2013-03-07 09:44:00,
2013-03-07 04:49:00,24.6,20.2,30.29,WSW,242,5.4,8.1,81,0.00,,,0.00,WSDL version 420,2013-03-07 09:49:00,
2013-03-07 04:54:00,24.6,20.2,30.30,West,265,5.0,8.1,81,0.00,,,0.00,WSDL version 420,2013-03-07 09:54:00,
2013-03-07 04:59:00,24.5,20.1,30.30,WNW,286,6.1,10.1,81,0.00,,,0.00,WSDL version 420,2013-03-07 09:59:00,
2013-03-07 05:04:00,24.6,20.2,30.30,WSW,253,4.2,10.1,81,0.00,,,0.00,WSDL version 420,2013-03-07 10:04:00,
2013-03-07 05:09:00,24.5,20.1,30.30,NNW,338,4.3,7.6,81,0.00,,,0.00,WSDL version 420,2013-03-07 10:09:00,
2013-03-07 05:14:00,24.4,20.0,30.30,West,262,2.7,7.6,81,0.00,,,0.00,WSDL version 420,2013-03-07 10:14:00,
2013-03-07 05:19:00,24.4,20.0,30.30,West,267,2.8,7.4,81,0.00,,,0.00,WSDL version 420,2013-03-07 10:19:00,
2013-03-07 05:24:00,24.4,20.0,30.30,West,270,4.6,8.5,81,0.00,,,0.00,WSDL version 420,2013-03-07 10:24:00,
2013-03-07 05:29:00,24.4,20.0,30.30,SSW,205,4.0,11.0,81,0.00,,,0.00,WSDL version 420,2013-03-07 10:29:00,
2013-03-07 05:34:00,24.4,20.0,30.30,West,270,3.7,11.0,81,0.00,,,0.00,WSDL version 420,2013-03-07 10:34:00,
2013-03-07 05:40:00,24.4,20.0,30.33,West,260,5.8,10.5,81,0.00,,,0.00,WSDL version 420,2013-03-07 10:40:00,
2013-03-07 05:50:00,24.4,19.8,30.33,West,276,6.1,10.3,80,0.00,,,0.00,WSDL version 420,2013-03-07 10:50:00,
2013-03-07 05:55:00,24.4,19.8,30.33,WNW,288,3.9,10.3,80,0.00,,,0.00,WSDL version 420,2013-03-07 10:55:00,
2013-03-07 06:00:00,24.4,19.8,30.33,West,264,4.9,10.5,80,0.00,,,0.00,WSDL version 420,2013-03-07 11:00:00,
2013-03-07 06:10:00,24.1,19.1,30.33,WNW,287,4.7,8.7,79,0.00,,,0.00,WSDL version 420,2013-03-07 11:10:00,
2013-03-07 06:20:00,24.1,19.1,30.33,West,273,3.5,12.3,79,0.00,,,0.00,WSDL version 420,2013-03-07 11:20:00,
2013-03-07 06:25:00,24.1,19.1,30.33,West,273,3.9,7.8,79,0.00,,,0.00,WSDL version 420,2013-03-07 11:25:00,
2013-03-07 06:35:00,24.2,19.1,30.33,West,276,3.9,10.5,78,0.00,,,0.00,WSDL version 420,2013-03-07 11:35:00,
2013-03-07 06:40:00,24.1,18.9,30.33,WNW,289,5.0,7.6,78,0.00,,,0.00,WSDL version 420,2013-03-07 11:40:00,
2013-03-07 06:50:00,23.9,18.7,30.33,West,273,4.8,7.2,78,0.00,,,0.00,WSDL version 420,2013-03-07 11:50:00,
2013-03-07 06:55:00,24.1,18.8,30.33,WSW,256,5.2,7.4,78,0.00,,,0.00,WSDL version 420,2013-03-07 11:55:00,
2013-03-07 07:00:00,24.1,18.6,30.33,WSW,258,3.7,7.4,77,0.00,,,0.00,WSDL version 420,2013-03-07 12:00:00,
2013-03-07 07:05:00,24.1,18.6,30.33,SW,214,3.0,6.9,77,0.00,,,0.00,WSDL version 420,2013-03-07 12:05:00,
2013-03-07 07:10:00,24.2,18.7,30.33,West,270,3.6,6.3,77,0.00,,,0.00,WSDL version 420,2013-03-07 12:10:00,
2013-03-07 07:15:00,24.4,18.8,30.33,West,270,3.2,6.9,76,0.00,,,0.00,WSDL version 420,2013-03-07 12:15:00,
2013-03-07 07:25:00,24.4,18.7,30.33,West,270,4.0,7.8,76,0.00,,,0.00,WSDL version 420,2013-03-07 12:25:00,
2013-03-07 07:30:00,24.5,18.6,30.33,West,264,5.5,9.6,75,0.00,,,0.00,WSDL version 420,2013-03-07 12:30:00,
2013-03-07 07:35:00,24.6,18.6,30.33,WNW,298,4.2,9.6,75,0.00,,,0.00,WSDL version 420,2013-03-07 12:35:00,
2013-03-07 07:40:00,24.7,18.7,30.33,WSW,250,2.8,5.8,75,0.00,,,0.00,WSDL version 420,2013-03-07 12:40:00,
2013-03-07 07:45:00,24.8,18.6,30.33,West,262,4.4,7.6,74,0.00,,,0.00,WSDL version 420,2013-03-07 12:45:00,
2013-03-07 07:50:00,25.0,18.7,30.33,West,265,3.6,7.6,74,0.00,,,0.00,WSDL version 420,2013-03-07 12:50:00,
2013-03-07 07:55:00,25.4,19.1,30.33,West,263,3.8,6.5,74,0.00,,,0.00,WSDL version 420,2013-03-07 12:55:00,
2013-03-07 08:00:00,26.1,19.5,30.33,West,270,3.2,6.9,73,0.00,,,0.00,WSDL version 420,2013-03-07 13:00:00,
2013-03-07 08:10:00,28.2,20.5,30.33,WSW,248,4.0,10.5,68,0.00,,,0.00,WSDL version 420,2013-03-07 13:10:00,
2013-03-07 08:15:00,28.1,19.4,30.32,West,280,2.8,10.5,66,0.00,,,0.00,WSDL version 420,2013-03-07 13:15:00,
2013-03-07 08:20:00,28.2,19.3,30.32,West,267,2.7,8.1,66,0.00,,,0.00,WSDL version 420,2013-03-07 13:20:00,
2013-03-07 08:30:00,28.4,18.8,30.32,SSW,194,2.6,5.6,63,0.00,,,0.00,WSDL version 420,2013-03-07 13:30:00,
2013-03-07 08:35:00,28.3,18.4,30.32,SSW,210,2.4,5.6,62,0.00,,,0.00,WSDL version 420,2013-03-07 13:35:00,
2013-03-07 08:45:00,28.8,18.4,30.32,WSW,239,2.1,8.1,61,0.00,,,0.00,WSDL version 420,2013-03-07 13:45:00,
2013-03-07 08:55:00,29.3,19.1,30.32,WSW,257,2.4,6.0,62,0.00,,,0.00,WSDL version 420,2013-03-07 13:55:00,
2013-03-07 09:00:00,29.3,18.6,30.32,West,273,2.9,7.2,60,0.00,,,0.00,WSDL version 420,2013-03-07 14:00:00,
2013-03-07 09:05:00,30.0,19.4,30.35,SSW,210,2.6,7.2,60,0.00,,,0.00,WSDL version 420,2013-03-07 14:05:00,
2013-03-07 09:10:00,30.6,19.4,30.35,West,262,3.4,6.3,59,0.00,,,0.00,WSDL version 420,2013-03-07 14:10:00,
2013-03-07 09:15:00,32.1,19.8,30.35,WNW,296,5.5,7.8,57,0.00,,,0.00,WSDL version 420,2013-03-07 14:15:00,
2013-03-07 09:20:00,32.7,18.4,30.35,West,270,6.7,10.3,54,0.00,,,0.00,WSDL version 420,2013-03-07 14:20:00,
2013-03-07 09:30:00,31.9,18.5,30.35,WNW,290,5.8,12.8,54,0.00,,,0.00,WSDL version 420,2013-03-07 14:30:00,
2013-03-07 09:35:00,32.2,18.3,30.35,WSW,238,6.7,15.2,54,0.00,,,0.00,WSDL version 420,2013-03-07 14:35:00,
2013-03-07 09:40:00,33.2,18.3,30.35,WNW,290,6.0,15.2,53,0.00,,,0.00,WSDL version 420,2013-03-07 14:40:00,
2013-03-07 09:45:00,34.2,18.7,30.34,West,276,5.3,10.5,52,0.00,,,0.00,WSDL version 420,2013-03-07 14:45:00,
2013-03-07 09:50:00,34.0,17.7,30.35,WSW,238,4.4,10.5,51,0.00,,,0.00,WSDL version 420,2013-03-07 14:50:00,
2013-03-07 09:55:00,34.3,17.9,30.35,WNW,295,4.5,12.1,51,0.00,,,0.00,WSDL version 420,2013-03-07 14:55:00,
2013-03-07 10:00:00,34.6,18.1,30.34,WSW,245,4.5,12.1,51,0.00,,,0.00,WSDL version 420,2013-03-07 15:00:00,
2013-03-07 10:05:00,35.0,18.7,30.34,NNW,343,2.9,11.2,51,0.00,,,0.00,WSDL version 420,2013-03-07 15:05:00,
2013-03-07 10:10:00,34.9,18.4,30.34,NW,318,4.5,7.6,51,0.00,,,0.00,WSDL version 420,2013-03-07 15:10:00,
2013-03-07 10:20:00,36.5,19.9,30.31,WNW,300,5.7,10.1,50,0.00,,,0.00,WSDL version 420,2013-03-07 15:20:00,
2013-03-07 10:25:00,37.1,20.0,30.31,SW,225,5.7,10.1,48,0.00,,,0.00,WSDL version 420,2013-03-07 15:25:00,
2013-03-07 10:30:00,37.2,19.8,30.31,WSW,256,6.3,13.0,48,0.00,,,0.00,WSDL version 420,2013-03-07 15:30:00,
2013-03-07 10:35:00,37.3,19.3,30.31,West,270,3.3,13.0,49,0.00,,,0.00,WSDL version 420,2013-03-07 15:35:00,
2013-03-07 10:45:00,37.6,19.2,30.31,SW,219,4.6,13.0,48,0.00,,,0.00,WSDL version 420,2013-03-07 15:45:00,
2013-03-07 10:55:00,38.4,20.8,30.30,West,260,3.3,8.7,49,0.00,,,0.00,WSDL version 420,2013-03-07 15:55:00,
2013-03-07 11:00:00,39.0,21.0,30.30,WSW,241,3.4,8.7,48,0.00,,,0.00,WSDL version 420,2013-03-07 16:00:00,
2013-03-07 11:05:00,39.3,20.3,30.30,West,267,4.3,6.5,47,0.00,,,0.00,WSDL version 420,2013-03-07 16:05:00,
2013-03-07 11:10:00,39.6,20.6,30.30,WSW,255,4.3,6.5,45,0.04,,,0.04,WSDL version 420,2013-03-07 16:10:00,
2013-03-07 11:20:00,39.1,19.8,30.30,WSW,245,3.6,9.4,47,0.04,,,0.04,WSDL version 420,2013-03-07 16:20:00,
2013-03-07 11:30:00,39.2,20.3,30.30,WSW,241,4.2,7.2,46,0.04,,,0.04,WSDL version 420,2013-03-07 16:30:00,
2013-03-07 11:40:00,39.1,20.6,30.30,West,270,4.8,12.1,46,0.04,,,0.04,WSDL version 420,2013-03-07 16:40:00,
2013-03-07 11:45:00,38.8,19.9,30.30,West,273,3.7,6.9,47,0.04,,,0.04,WSDL version 420,2013-03-07 16:45:00,
2013-03-07 11:50:00,39.4,20.7,30.30,West,262,2.9,6.5,48,0.04,,,0.04,WSDL version 420,2013-03-07 16:50:00,
2013-03-07 12:00:00,40.1,21.9,30.30,SW,228,4.1,8.7,48,0.04,,,0.04,WSDL version 420,2013-03-07 17:00:00,
2013-03-07 12:10:00,41.4,21.4,30.30,SW,230,5.3,8.5,44,0.00,,,0.04,WSDL version 420,2013-03-07 17:10:00,
2013-03-07 12:15:00,40.9,21.1,30.30,WSW,241,5.0,9.4,44,0.00,,,0.04,WSDL version 420,2013-03-07 17:15:00,
2013-03-07 12:20:00,41.1,21.0,30.30,WSW,240,5.2,9.4,44,0.00,,,0.04,WSDL version 420,2013-03-07 17:20:00,
2013-03-07 12:30:00,41.7,21.4,30.30,WSW,238,5.8,11.0,45,0.00,,,0.04,WSDL version 420,2013-03-07 17:30:00,
2013-03-07 12:35:00,42.7,22.6,30.30,SW,225,4.8,11.0,45,0.00,,,0.04,WSDL version 420,2013-03-07 17:35:00,
2013-03-07 12:40:00,42.9,22.2,30.30,SW,235,4.7,11.0,42,0.00,,,0.04,WSDL version 420,2013-03-07 17:40:00,
2013-03-07 12:45:00,43.4,23.3,30.30,North,357,3.6,12.1,43,0.00,,,0.04,WSDL version 420,2013-03-07 17:45:00,
2013-03-07 12:55:00,42.3,21.6,30.30,WNW,283,2.5,13.0,43,0.00,,,0.04,WSDL version 420,2013-03-07 17:55:00,
2013-03-07 13:05:00,43.2,22.0,30.30,WSW,255,4.4,10.3,43,0.00,,,0.04,WSDL version 420,2013-03-07 18:05:00,
2013-03-07 13:10:00,43.8,22.6,30.30,SW,231,3.5,10.3,43,0.00,,,0.04,WSDL version 420,2013-03-07 18:10:00,
2013-03-07 13:15:00,44.2,22.7,30.30,WSW,255,4.5,11.2,41,0.00,,,0.04,WSDL version 420,2013-03-07 18:15:00,
2013-03-07 13:20:00,44.1,22.0,30.30,WSW,239,4.6,11.2,41,0.00,,,0.04,WSDL version 420,2013-03-07 18:20:00,
2013-03-07 13:25:00,44.5,23.0,30.29,WNW,283,3.1,6.0,44,0.00,,,0.04,WSDL version 420,2013-03-07 18:25:00,
2013-03-07 13:30:00,45.3,23.4,30.29,West,260,4.2,6.0,42,0.00,,,0.04,WSDL version 420,2013-03-07 18:30:00,
2013-03-07 13:35:00,45.9,23.7,30.29,WSW,250,2.1,5.8,41,0.00,,,0.04,WSDL version 420,2013-03-07 18:35:00,
2013-03-07 13:41:00,46.0,24.0,30.29,WNW,290,3.1,6.3,41,0.00,,,0.04,WSDL version 420,2013-03-07 18:41:00,
2013-03-07 13:45:00,46.7,23.2,30.29,WNW,286,7.0,9.6,39,0.00,,,0.04,WSDL version 420,2013-03-07 18:45:00,
2013-03-07 13:50:00,45.4,22.0,30.26,West,273,3.1,12.8,40,0.00,,,0.04,WSDL version 420,2013-03-07 18:50:00,
2013-03-07 13:56:00,46.4,23.1,30.26,SE,143,3.4,12.8,39,0.00,,,0.04,WSDL version 420,2013-03-07 18:56:00,
2013-03-07 14:05:00,47.2,23.6,30.26,NW,315,3.6,12.3,39,0.00,,,0.04,WSDL version 420,2013-03-07 19:05:00,
2013-03-07 14:10:00,47.1,23.3,30.26,West,276,3.0,9.6,39,0.00,,,0.04,WSDL version 420,2013-03-07 19:10:00,
2013-03-07 14:15:00,46.7,23.2,30.26,West,270,6.5,10.1,39,0.00,,,0.04,WSDL version 420,2013-03-07 19:15:00,
2013-03-07 14:20:00,46.3,22.2,30.26,West,270,4.5,11.0,38,0.00,,,0.04,WSDL version 420,2013-03-07 19:20:00,
2013-03-07 14:25:00,46.7,22.9,30.26,West,278,3.2,11.0,39,0.00,,,0.04,WSDL version 420,2013-03-07 19:25:00,
2013-03-07 14:30:00,47.1,23.3,30.26,WNW,285,6.8,11.0,38,0.00,,,0.04,WSDL version 420,2013-03-07 19:30:00,
2013-03-07 14:35:00,46.5,22.6,30.26,WSW,253,7.6,12.3,39,0.00,,,0.04,WSDL version 420,2013-03-07 19:35:00,
2013-03-07 14:40:00,46.3,22.5,30.26,WNW,285,7.9,12.3,39,0.00,,,0.04,WSDL version 420,2013-03-07 19:40:00,
2013-03-07 14:52:00,45.7,21.9,30.26,West,270,8.6,12.8,38,0.00,,,0.04,WSDL version 420,2013-03-07 19:52:00,
2013-03-07 14:57:00,44.5,20.9,30.26,West,267,6.0,12.8,39,0.00,,,0.04,WSDL version 420,2013-03-07 19:57:00,
2013-03-07 15:02:00,44.8,21.4,30.26,WSW,253,4.9,12.5,39,0.00,,,0.04,WSDL version 420,2013-03-07 20:02:00,
2013-03-07 15:07:00,45.0,21.7,30.26,WSW,245,7.1,11.4,39,0.00,,,0.04,WSDL version 420,2013-03-07 20:07:00,
2013-03-07 15:12:00,44.8,21.7,30.26,WSW,245,4.6,11.4,40,0.00,,,0.04,WSDL version 420,2013-03-07 20:12:00,
2013-03-07 15:17:00,44.7,21.7,30.26,WNW,295,4.3,9.6,40,0.00,,,0.04,WSDL version 420,2013-03-07 20:17:00,
2013-03-07 15:27:00,45.2,22.2,30.29,WNW,287,3.8,6.5,40,0.00,,,0.04,WSDL version 420,2013-03-07 20:27:00,
2013-03-07 15:32:00,44.5,21.9,30.29,WSW,239,4.6,7.8,42,0.00,,,0.04,WSDL version 420,2013-03-07 20:32:00,
2013-03-07 15:42:00,44.2,22.0,30.26,WNW,290,4.7,8.5,41,0.00,,,0.04,WSDL version 420,2013-03-07 20:42:00,
2013-03-07 15:52:00,43.6,21.6,30.26,WSW,250,4.9,8.5,41,0.00,,,0.04,WSDL version 420,2013-03-07 20:52:00,
2013-03-07 15:57:00,43.6,21.6,30.26,WSW,253,5.4,8.5,41,0.00,,,0.04,WSDL version 420,2013-03-07 20:57:00,
2013-03-07 16:07:00,43.3,21.2,30.26,WNW,301,2.7,8.7,41,0.00,,,0.04,WSDL version 420,2013-03-07 21:07:00,
2013-03-07 16:17:00,42.7,20.6,30.27,West,270,3.6,8.5,41,0.00,,,0.04,WSDL version 420,2013-03-07 21:17:00,
2013-03-07 16:22:00,42.8,20.8,30.30,WSW,257,2.7,7.4,41,0.00,,,0.04,WSDL version 420,2013-03-07 21:22:00,
2013-03-07 16:27:00,42.7,20.9,30.30,WSW,245,3.8,7.4,42,0.00,,,0.04,WSDL version 420,2013-03-07 21:27:00,
2013-03-07 16:37:00,42.1,20.7,30.30,WSW,258,1.3,8.7,42,0.00,,,0.04,WSDL version 420,2013-03-07 21:37:00,
2013-03-07 16:42:00,42.0,20.6,30.30,West,273,4.4,8.7,42,0.00,,,0.04,WSDL version 420,2013-03-07 21:42:00,
2013-03-07 16:52:00,41.7,20.6,30.30,SW,222,2.1,6.5,42,0.00,,,0.04,WSDL version 420,2013-03-07 21:52:00,
2013-03-07 16:57:00,41.5,20.5,30.30,WNW,287,3.4,5.6,43,0.00,,,0.04,WSDL version 420,2013-03-07 21:57:00,
2013-03-07 17:07:00,40.5,19.8,30.30,WNW,283,3.4,7.4,43,0.00,,,0.04,WSDL version 420,2013-03-07 22:07:00,
2013-03-07 17:12:00,40.1,19.9,30.30,SW,231,3.2,6.3,44,0.00,,,0.04,WSDL version 420,2013-03-07 22:12:00,
2013-03-07 17:17:00,39.8,19.7,30.30,West,267,2.7,6.0,44,0.00,,,0.04,WSDL version 420,2013-03-07 22:17:00,
2013-03-07 17:22:00,39.3,19.5,30.31,West,270,3.0,6.3,45,0.00,,,0.04,WSDL version 420,2013-03-07 22:22:00,
2013-03-07 17:27:00,39.0,20.0,30.31,WSW,245,3.3,6.3,47,0.00,,,0.04,WSDL version 420,2013-03-07 22:27:00,
2013-03-07 17:32:00,38.7,20.1,30.31,West,276,3.0,5.6,48,0.00,,,0.04,WSDL version 420,2013-03-07 22:32:00,
2013-03-07 17:37:00,38.2,20.1,30.31,WNW,293,2.1,5.6,49,0.00,,,0.04,WSDL version 420,2013-03-07 22:37:00,
2013-03-07 17:47:00,37.4,19.7,30.31,West,278,3.0,6.7,49,0.00,,,0.04,WSDL version 420,2013-03-07 22:47:00,
2013-03-07 17:57:00,36.8,19.9,30.31,West,281,2.5,5.8,50,0.00,,,0.04,WSDL version 420,2013-03-07 22:57:00,
2013-03-07 18:02:00,36.4,19.5,30.31,WSW,243,5.6,11.9,50,0.00,,,0.04,WSDL version 420,2013-03-07 23:02:00,
2013-03-07 18:12:00,36.0,19.6,30.31,WSW,253,5.3,10.7,51,0.00,,,0.04,WSDL version 420,2013-03-07 23:12:00,
2013-03-07 18:24:00,35.2,19.5,30.31,West,260,4.2,10.1,53,0.00,,,0.04,WSDL version 420,2013-03-07 23:24:00,
2013-03-07 18:29:00,34.7,19.3,30.31,West,268,5.2,8.1,54,0.00,,,0.04,WSDL version 420,2013-03-07 23:29:00,
2013-03-07 18:36:00,34.1,19.0,30.32,West,270,4.3,8.1,54,0.00,,,0.04,WSDL version 420,2013-03-07 23:36:00,
2013-03-07 18:41:00,33.7,19.3,30.32,West,278,4.2,6.3,56,0.00,,,0.04,WSDL version 420,2013-03-07 23:41:00,
2013-03-07 18:46:00,33.3,19.2,30.32,West,281,4.4,7.4,56,0.00,,,0.04,WSDL version 420,2013-03-07 23:46:00,
2013-03-07 18:51:00,33.0,19.5,30.35,WNW,288,5.8,8.5,57,0.00,,,0.04,WSDL version 420,2013-03-07 23:51:00,
2013-03-07 18:56:00,32.8,19.3,30.35,West,270,4.9,8.5,57,0.00,,,0.04,WSDL version 420,2013-03-07 23:56:00,
2013-03-07 19:01:00,32.5,19.2,30.35,West,276,4.8,8.1,58,0.00,,,0.04,WSDL version 420,2013-03-08 00:01:00,
2013-03-07 19:06:00,32.2,19.6,30.32,West,268,4.8,8.1,59,0.00,,,0.04,WSDL version 420,2013-03-08 00:06:00,
2013-03-07 19:11:00,31.8,20.6,30.32,West,278,4.5,8.1,59,0.00,,,0.04,WSDL version 420,2013-03-08 00:11:00,
2013-03-07 19:16:00,31.6,20.8,30.32,West,265,5.4,8.1,61,0.00,,,0.04,WSDL version 420,2013-03-08 00:16:00,
2013-03-07 19:21:00,31.2,20.8,30.35,West,273,4.8,8.7,62,0.00,,,0.04,WSDL version 420,2013-03-08 00:21:00,
2013-03-07 19:26:00,31.1,20.9,30.35,WSW,250,4.2,8.7,62,0.00,,,0.04,WSDL version 420,2013-03-08 00:26:00,
2013-03-07 19:31:00,30.9,20.7,30.35,WSW,253,4.8,8.7,62,0.00,,,0.04,WSDL version 420,2013-03-08 00:31:00,
2013-03-07 19:36:00,30.7,20.5,30.35,West,270,4.8,8.7,62,0.00,,,0.04,WSDL version 420,2013-03-08 00:36:00,
2013-03-07 19:41:00,30.5,20.5,30.36,WSW,250,4.4,8.5,63,0.00,,,0.04,WSDL version 420,2013-03-08 00:41:00,
2013-03-07 19:46:00,30.4,20.9,30.36,NW,307,4.4,8.5,64,0.00,,,0.04,WSDL version 420,2013-03-08 00:46:00,
2013-03-07 19:51:00,30.3,20.8,30.35,WSW,253,3.6,7.4,64,0.00,,,0.04,WSDL version 420,2013-03-08 00:51:00,
2013-03-07 19:56:00,30.2,20.7,30.35,West,264,3.9,7.2,64,0.00,,,0.04,WSDL version 420,2013-03-08 00:56:00,
2013-03-07 20:01:00,30.0,20.5,30.35,West,268,4.6,8.5,64,0.00,,,0.04,WSDL version 420,2013-03-08 01:01:00,
2013-03-07 20:06:00,30.0,20.9,30.35,West,265,4.3,11.2,65,0.00,,,0.04,WSDL version 420,2013-03-08 01:06:00,
2013-03-07 20:11:00,29.8,20.6,30.35,West,270,5.1,11.2,65,0.00,,,0.04,WSDL version 420,2013-03-08 01:11:00,
2013-03-07 20:16:00,29.8,20.6,30.35,WNW,298,4.4,8.7,65,0.00,,,0.04,WSDL version 420,2013-03-08 01:16:00,
2013-03-07 20:21:00,29.7,20.6,30.35,West,276,4.7,7.4,66,0.00,,,0.04,WSDL version 420,2013-03-08 01:21:00,
2013-03-07 20:26:00,29.6,20.8,30.35,WSW,258,4.8,7.2,66,0.00,,,0.04,WSDL version 420,2013-03-08 01:26:00,
2013-03-07 20:31:00,29.5,20.7,30.35,WNW,284,5.2,7.8,66,0.00,,,0.04,WSDL version 420,2013-03-08 01:31:00,
2013-03-07 20:36:00,29.5,20.5,30.35,WSW,255,4.9,8.7,66,0.00,,,0.04,WSDL version 420,2013-03-08 01:36:00,
2013-03-07 20:41:00,29.5,20.6,30.35,West,264,6.2,8.7,66,0.00,,,0.04,WSDL version 420,2013-03-08 01:41:00,
2013-03-07 20:46:00,29.4,20.6,30.35,WNW,284,4.8,8.5,66,0.00,,,0.04,WSDL version 420,2013-03-08 01:46:00,
2013-03-07 20:51:00,29.3,20.4,30.35,WNW,285,4.2,7.8,65,0.00,,,0.04,WSDL version 420,2013-03-08 01:51:00,
2013-03-07 20:56:00,29.3,20.4,30.35,West,262,4.7,7.2,66,0.00,,,0.04,WSDL version 420,2013-03-08 01:56:00,
2013-03-07 21:01:00,29.2,20.3,30.35,West,275,5.7,8.7,66,0.00,,,0.04,WSDL version 420,2013-03-08 02:01:00,
2013-03-07 21:06:00,29.2,20.3,30.35,WNW,284,7.0,8.7,66,0.00,,,0.04,WSDL version 420,2013-03-08 02:06:00,
2013-03-07 21:16:00,28.9,20.1,30.35,WNW,298,4.3,8.5,66,0.00,,,0.04,WSDL version 420,2013-03-08 02:16:00,
2013-03-07 21:21:00,28.8,20.0,30.34,West,280,4.3,7.6,66,0.00,,,0.04,WSDL version 420,2013-03-08 02:21:00,
2013-03-07 21:26:00,28.6,20.0,30.34,WNW,300,4.5,8.5,67,0.00,,,0.04,WSDL version 420,2013-03-08 02:26:00,
2013-03-07 21:31:00,28.6,20.0,30.35,West,281,5.5,8.7,67,0.00,,,0.04,WSDL version 420,2013-03-08 02:31:00,
2013-03-07 21:36:00,28.6,20.1,30.35,West,280,4.6,8.7,67,0.00,,,0.04,WSDL version 420,2013-03-08 02:36:00,
2013-03-07 21:41:00,28.4,20.0,30.34,WNW,298,5.0,6.9,67,0.00,,,0.04,WSDL version 420,2013-03-08 02:41:00,
2013-03-07 21:46:00,28.4,20.1,30.34,WNW,288,6.4,9.2,68,0.00,,,0.04,WSDL version 420,2013-03-08 02:46:00,
2013-03-07 21:51:00,28.4,20.2,30.34,West,278,5.8,9.6,68,0.00,,,0.04,WSDL version 420,2013-03-08 02:51:00,
2013-03-07 21:56:00,28.2,20.1,30.34,WNW,284,5.4,10.5,68,0.00,,,0.04,WSDL version 420,2013-03-08 02:56:00,
2013-03-07 22:01:00,28.1,19.9,30.34,WNW,290,5.2,10.5,68,0.00,,,0.04,WSDL version 420,2013-03-08 03:01:00,
2013-03-07 22:06:00,28.0,19.9,30.34,WNW,298,5.6,7.4,68,0.00,,,0.04,WSDL version 420,2013-03-08 03:06:00,
2013-03-07 22:11:00,27.9,19.8,30.34,West,278,6.2,10.5,69,0.00,,,0.04,WSDL version 420,2013-03-08 03:11:00,
2013-03-07 22:16:00,27.9,20.0,30.34,WNW,301,5.0,10.5,69,0.00,,,0.04,WSDL version 420,2013-03-08 03:16:00,
2013-03-07 22:23:00,27.9,20.0,30.34,WNW,285,6.5,11.0,69,0.00,,,0.04,WSDL version 420,2013-03-08 03:23:00,
2013-03-07 22:28:00,27.9,20.0,30.34,WNW,283,7.1,11.0,69,0.00,,,0.04,WSDL version 420,2013-03-08 03:28:00,
2013-03-07 22:33:00,27.9,20.0,30.34,West,267,6.1,10.3,69,0.00,,,0.04,WSDL version 420,2013-03-08 03:33:00,
2013-03-07 22:38:00,27.9,20.0,30.34,WNW,290,6.1,10.7,69,0.00,,,0.04,WSDL version 420,2013-03-08 03:38:00,
2013-03-07 22:48:00,27.5,19.9,30.34,West,259,7.2,13.2,70,0.00,,,0.04,WSDL version 420,2013-03-08 03:48:00,
2013-03-07 22:53:00,27.4,20.1,30.34,West,280,5.6,13.2,71,0.00,,,0.04,WSDL version 420,2013-03-08 03:53:00,
2013-03-07 22:58:00,27.3,20.1,30.34,West,273,5.4,10.5,71,0.00,,,0.04,WSDL version 420,2013-03-08 03:58:00,
2013-03-07 23:03:00,27.3,20.1,30.33,West,278,5.8,10.1,71,0.00,,,0.04,WSDL version 420,2013-03-08 04:03:00,
2013-03-07 23:08:00,27.2,20.0,30.33,West,281,6.3,10.7,71,0.00,,,0.04,WSDL version 420,2013-03-08 04:08:00,
2013-03-07 23:13:00,27.0,19.6,30.33,West,278,5.0,10.7,70,0.00,,,0.04,WSDL version 420,2013-03-08 04:13:00,
2013-03-07 23:23:00,27.0,19.8,30.34,West,273,5.0,11.0,71,0.00,,,0.04,WSDL version 420,2013-03-08 04:23:00,
2013-03-07 23:28:00,27.0,19.8,30.34,West,262,5.3,8.7,72,0.00,,,0.04,WSDL version 420,2013-03-08 04:28:00,
2013-03-07 23:38:00,27.0,20.0,30.33,WNW,290,5.1,8.7,72,0.00,,,0.04,WSDL version 420,2013-03-08 04:38:00,
2013-03-07 23:43:00,26.8,19.9,30.33,West,278,6.2,8.7,72,0.00,,,0.04,WSDL version 420,2013-03-08 04:43:00,
2013-03-07 23:48:00,26.8,19.6,30.34,West,275,5.0,8.7,71,0.00,,,0.04,WSDL version 420,2013-03-08 04:48:00,
2013-03-07 23:53:00,26.8,19.8,30.33,WNW,283,6.1,7.4,72,0.00,,,0.04,WSDL version 420,2013-03-08 04:53:00,
2013-03-07 23:58:00,26.8,19.7,30.33,West,260,5.6,7.6,71,0.00,,,0.04,WSDL version 420,2013-03-08 04:58:00,